Time;durP1;ratioP1;P1;durP2;ratioP2;P2;SDS_P1;SDS_P2;PMS_P1;PMS_P2;Temp;Humidity;BMP_temperature;BMP_pressure;BME280_temperature;BME280_humidity;BME280_pressure;Samples;Min_cycle;Max_cycle;Signal;HPM_P1;HPM_P2
2023/04/11 00:01:06;;;;;;;27.70;6.97;;;;;;;9.09;100.00;100835.69;4971232;28;20073;-75
2023/04/11 00:03:31;;;;;;;28.02;6.82;;;;;;;9.07;100.00;100832.31;4970489;28;20019;-75
2023/04/11 00:05:57;;;;;;;31.23;8.88;;;;;;;9.06;100.00;100826.22;4982888;28;20088;-75
2023/04/11 00:08:23;;;;;;;29.70;7.25;;;;;;;9.05;100.00;100831.59;4989383;28;20034;-75
2023/04/11 00:10:48;;;;;;;33.85;8.52;;;;;;;9.01;100.00;100822.25;5004950;28;20038;-77
2023/04/11 00:13:14;;;;;;;27.48;7.70;;;;;;;8.94;100.00;100821.81;4988444;28;20022;-75
2023/04/11 00:15:40;;;;;;;27.75;7.43;;;;;;;8.89;100.00;100823.09;4990082;28;20023;-75
2023/04/11 00:18:05;;;;;;;27.50;6.85;;;;;;;8.86;100.00;100823.28;4989357;28;20032;-75
2023/04/11 00:20:31;;;;;;;28.80;8.05;;;;;;;8.82;100.00;100837.56;4987973;28;20104;-75
2023/04/11 00:22:57;;;;;;;31.77;8.07;;;;;;;8.73;100.00;100837.19;4974195;28;20030;-75
2023/04/11 00:25:23;;;;;;;37.10;9.13;;;;;;;8.72;100.00;100838.16;4969365;28;20031;-76
2023/04/11 00:27:48;;;;;;;28.67;7.60;;;;;;;8.67;100.00;100835.00;4989902;28;20542;-76
2023/04/11 00:30:14;;;;;;;29.70;7.82;;;;;;;8.60;100.00;100838.97;4989493;28;20360;-76
2023/04/11 00:32:40;;;;;;;34.67;7.90;;;;;;;8.56;100.00;100842.72;4988818;28;20022;-76
2023/04/11 00:35:07;;;;;;;36.17;9.27;;;;;;;8.54;100.00;100830.66;4989048;28;20472;-76
2023/04/11 00:37:34;;;;;;;29.92;8.77;;;;;;;8.50;100.00;100843.13;4990491;28;20033;-76
2023/04/11 00:40:04;;;;;;;37.47;8.90;;;;;;;8.45;100.00;100843.44;4980498;28;20038;-76
2023/04/11 00:42:29;;;;;;;34.10;8.43;;;;;;;8.44;100.00;100846.16;4979038;28;20082;-76
2023/04/11 00:44:56;;;;;;;39.85;8.88;;;;;;;8.41;100.00;100849.81;4991909;28;20452;-76
2023/04/11 00:47:22;;;;;;;34.30;8.65;;;;;;;8.42;100.00;100845.44;4993324;28;20026;-76
2023/04/11 00:49:47;;;;;;;28.48;8.35;;;;;;;8.43;100.00;100842.69;4994201;28;20030;-76
2023/04/11 00:52:13;;;;;;;40.83;9.75;;;;;;;8.45;100.00;100845.22;4993119;28;20022;-76
2023/04/11 00:54:40;;;;;;;37.30;9.25;;;;;;;8.45;100.00;100839.97;4993694;28;20101;-76
2023/04/11 00:57:06;;;;;;;29.98;8.38;;;;;;;8.44;100.00;100838.31;5004134;28;20126;-76
2023/04/11 00:59:32;;;;;;;36.95;8.30;;;;;;;8.45;100.00;100829.50;4974827;28;20053;-76
2023/04/11 01:01:58;;;;;;;32.33;8.38;;;;;;;8.44;100.00;100839.13;4974145;28;20027;-76
2023/04/11 01:04:25;;;;;;;44.08;9.70;;;;;;;8.44;100.00;100833.91;4989428;28;20019;-76
2023/04/11 01:06:55;;;;;;;40.97;8.30;;;;;;;8.43;100.00;100836.63;4986956;28;20022;-76
2023/04/11 01:09:24;;;;;;;35.63;9.02;;;;;;;8.42;100.00;100834.94;4991878;28;20030;-76
2023/04/11 01:11:50;;;;;;;30.67;7.95;;;;;;;8.40;100.00;100842.03;4992898;28;20034;-76
2023/04/11 01:14:19;;;;;;;33.95;9.48;;;;;;;8.37;100.00;100843.06;4979262;28;20037;-76
2023/04/11 01:16:46;;;;;;;43.10;9.65;;;;;;;8.32;100.00;100842.50;4989749;28;20109;-76
2023/04/11 01:19:17;;;;;;;40.08;8.85;;;;;;;8.30;100.00;100844.38;4990280;28;20546;-76
2023/04/11 01:21:44;;;;;;;35.47;8.63;;;;;;;8.28;100.00;100842.81;4990778;28;20026;-76
2023/04/11 01:24:10;;;;;;;41.88;9.60;;;;;;;8.23;100.00;100832.63;4991096;28;20026;-76
2023/04/11 01:26:36;;;;;;;36.42;8.40;;;;;;;8.22;100.00;100837.97;4991924;28;20520;-76
2023/04/11 01:29:04;;;;;;;37.42;8.70;;;;;;;8.18;100.00;100825.06;4990504;28;20089;-76
2023/04/11 01:31:32;;;;;;;33.60;8.00;;;;;;;8.18;100.00;100832.91;4990987;28;20480;-76
2023/04/11 01:34:06;;;;;;;33.80;7.97;;;;;;;8.18;100.00;100832.06;4992492;28;20235;-76
2023/04/11 01:36:32;;;;;;;35.75;8.45;;;;;;;8.15;100.00;100848.00;4992126;28;20033;-76
2023/04/11 01:38:58;;;;;;;33.92;9.10;;;;;;;8.12;100.00;100848.19;5008652;28;20029;-76
2023/04/11 01:41:25;;;;;;;38.65;8.70;;;;;;;8.11;100.00;100852.59;5006720;28;20411;-75
2023/04/11 01:43:50;;;;;;;32.83;8.05;;;;;;;8.07;100.00;100856.34;4992178;28;20093;-76
2023/04/11 01:46:16;;;;;;;37.85;8.27;;;;;;;8.03;100.00;100860.09;4991040;28;20031;-76
2023/04/11 01:48:42;;;;;;;44.22;8.88;;;;;;;8.01;100.00;100867.22;4974764;28;20080;-76
2023/04/11 01:51:07;;;;;;;41.05;8.90;;;;;;;7.97;100.00;100868.31;4990333;28;20022;-76
2023/04/11 01:53:33;;;;;;;39.78;9.00;;;;;;;7.92;100.00;100865.16;4993530;28;20093;-76
2023/04/11 01:55:58;;;;;;;37.17;9.35;;;;;;;7.91;100.00;100867.88;4991586;28;20106;-76
2023/04/11 01:58:23;;;;;;;41.00;8.93;;;;;;;7.91;100.00;100875.72;4990652;28;20114;-76
2023/04/11 02:00:49;;;;;;;34.58;8.70;;;;;;;7.91;100.00;100868.72;4992310;28;20034;-76
2023/04/11 02:03:16;;;;;;;40.28;9.63;;;;;;;7.90;100.00;100874.88;4991355;28;20065;-76
2023/04/11 02:05:43;;;;;;;39.80;9.65;;;;;;;7.90;100.00;100879.28;4992924;28;20486;-76
2023/04/11 02:08:09;;;;;;;40.40;9.07;;;;;;;7.89;100.00;100877.59;4991918;28;20165;-76
2023/04/11 02:10:35;;;;;;;36.33;9.30;;;;;;;7.88;100.00;100882.00;4992977;28;20027;-76
2023/04/11 02:13:01;;;;;;;35.00;8.38;;;;;;;7.88;100.00;100887.25;4992218;28;20026;-76
2023/04/11 02:15:26;;;;;;;37.20;8.65;;;;;;;7.90;100.00;100885.38;4992545;28;20490;-76
2023/04/11 02:17:52;;;;;;;39.15;9.38;;;;;;;7.89;100.00;100883.69;4991903;28;20034;-76
2023/04/11 02:20:20;;;;;;;35.70;9.60;;;;;;;7.90;100.00;100880.13;4986893;28;20479;-76
2023/04/11 02:22:45;;;;;;;38.65;9.25;;;;;;;7.90;100.00;100888.00;5001296;28;20130;-76
2023/04/11 02:25:11;;;;;;;38.75;9.15;;;;;;;7.92;100.00;100887.91;4989074;28;20030;-76
2023/04/11 02:27:36;;;;;;;33.03;8.95;;;;;;;7.94;100.00;100892.09;4991962;28;20033;-76
2023/04/11 02:30:04;;;;;;;37.65;8.88;;;;;;;7.94;100.00;100899.97;5006468;28;20483;-76
2023/04/11 02:32:33;;;;;;;37.75;9.40;;;;;;;7.95;100.00;100892.94;4988863;28;20021;-76
2023/04/11 02:34:58;;;;;;;32.47;8.38;;;;;;;7.96;100.00;100892.84;4991956;28;20021;-76
2023/04/11 02:37:25;;;;;;;42.20;8.90;;;;;;;7.97;100.00;100897.16;4984299;28;20562;-76
2023/04/11 02:39:50;;;;;;;35.30;8.63;;;;;;;7.98;100.00;100893.59;5004890;28;20026;-76
2023/04/11 02:42:15;;;;;;;32.17;7.95;;;;;;;7.99;100.00;100904.91;4989314;28;20047;-76
2023/04/11 02:44:41;;;;;;;33.00;9.20;;;;;;;7.98;100.00;100893.59;4989840;28;20048;-76
2023/04/11 02:47:06;;;;;;;33.40;8.57;;;;;;;7.99;100.00;100904.91;4988740;28;20113;-77
2023/04/11 02:49:31;;;;;;;33.55;8.45;;;;;;;8.01;100.00;100903.91;4990502;28;20026;-76
2023/04/11 02:51:57;;;;;;;26.67;6.90;;;;;;;7.99;100.00;100895.28;4987903;28;20058;-76
2023/04/11 02:54:22;;;;;;;27.63;7.18;;;;;;;8.00;100.00;100896.94;4985134;28;20126;-77
2023/04/11 02:56:47;;;;;;;32.10;8.10;;;;;;;8.00;100.00;100896.94;4970548;28;20110;-76
2023/04/11 02:59:13;;;;;;;29.58;7.07;;;;;;;8.01;100.00;100903.91;4970867;28;20472;-76
2023/04/11 03:01:38;;;;;;;32.83;7.10;;;;;;;7.99;100.00;100904.91;4983169;28;20108;-76
2023/04/11 03:04:04;;;;;;;31.70;6.93;;;;;;;7.99;100.00;100904.91;4988709;28;20054;-76
2023/04/11 03:06:34;;;;;;;32.47;7.47;;;;;;;7.97;100.00;100912.88;4990172;28;20463;-76
2023/04/11 03:09:00;;;;;;;26.35;6.15;;;;;;;7.96;100.00;100905.94;5000081;28;20033;-76
2023/04/11 03:11:26;;;;;;;27.42;6.15;;;;;;;7.94;100.00;100902.59;4990836;28;20026;-75
2023/04/11 03:13:52;;;;;;;30.25;6.35;;;;;;;7.93;100.00;100911.38;4990563;28;20040;-75
2023/04/11 03:16:18;;;;;;;23.23;6.07;;;;;;;7.89;100.00;100909.88;4988630;28;20018;-76
2023/04/11 03:18:44;;;;;;;29.95;5.75;;;;;;;7.88;100.00;100917.84;4990850;28;20022;-76
2023/04/11 03:21:10;;;;;;;23.17;5.40;;;;;;;7.85;100.00;100924.09;5004178;28;20038;-76
2023/04/11 03:23:37;;;;;;;22.23;5.30;;;;;;;7.82;100.00;100926.91;4991692;28;20030;-76
2023/04/11 03:26:06;;;;;;;22.98;5.15;;;;;;;7.81;99.60;100933.09;4990175;28;20458;-76
2023/04/11 03:28:37;;;;;;;22.80;5.05;;;;;;;7.79;99.30;100934.97;4990782;28;20526;-76
2023/04/11 03:31:02;;;;;;;22.25;4.63;;;;;;;7.78;99.35;100934.13;5002622;28;20117;-76
2023/04/11 03:33:28;;;;;;;22.92;4.50;;;;;;;7.79;99.46;100942.81;4986216;28;20315;-76
2023/04/11 03:35:54;;;;;;;20.50;4.20;;;;;;;7.78;99.38;100938.53;4989449;28;20023;-76
2023/04/11 03:38:20;;;;;;;20.08;4.43;;;;;;;7.77;99.15;100940.31;4989121;28;20053;-76
2023/04/11 03:40:46;;;;;;;19.35;4.53;;;;;;;7.77;99.46;100942.06;4990354;28;20479;-76
2023/04/11 03:43:12;;;;;;;23.60;5.45;;;;;;;7.76;99.48;100945.63;4988877;28;20038;-76
2023/04/11 03:45:38;;;;;;;26.45;4.50;;;;;;;7.73;99.00;100945.81;4990424;28;20034;-76
2023/04/11 03:48:03;;;;;;;19.55;4.10;;;;;;;7.74;98.58;100947.50;4977507;28;20035;-76
2023/04/11 03:50:29;;;;;;;16.30;3.88;;;;;;;7.73;98.29;100956.28;4987038;28;20475;-76
2023/04/11 03:52:56;;;;;;;21.67;5.13;;;;;;;7.70;98.51;100951.25;4988235;28;20033;-75
2023/04/11 03:55:22;;;;;;;23.50;4.90;;;;;;;7.68;98.21;100951.34;4989823;28;20549;-76
2023/04/11 03:57:49;;;;;;;20.98;4.43;;;;;;;7.68;98.30;100953.13;4989216;28;20054;-76
2023/04/11 04:00:15;;;;;;;21.60;4.80;;;;;;;7.64;98.39;100956.84;5004315;28;20018;-76
2023/04/11 04:02:41;;;;;;;22.45;4.93;;;;;;;7.61;98.48;100959.66;4988677;28;20038;-76
2023/04/11 04:05:06;;;;;;;26.13;5.68;;;;;;;7.57;98.76;100955.50;4983159;28;20103;-76
2023/04/11 04:07:32;;;;;;;22.42;5.30;;;;;;;7.55;99.40;100964.31;4976670;28;20073;-76
2023/04/11 04:09:57;;;;;;;23.02;5.20;;;;;;;7.54;99.29;100964.38;4988727;28;20029;-76
2023/04/11 04:12:24;;;;;;;19.23;5.25;;;;;;;7.49;99.32;100962.06;4988990;28;20030;-76
2023/04/11 04:14:51;;;;;;;24.90;5.13;;;;;;;7.48;99.52;100967.38;4989328;28;20022;-76
2023/04/11 04:17:16;;;;;;;25.42;5.40;;;;;;;7.47;99.45;100961.31;4988742;28;20037;-76
2023/04/11 04:19:43;;;;;;;19.25;4.88;;;;;;;7.44;100.00;100966.72;4989382;28;20034;-76
2023/04/11 04:22:10;;;;;;;25.20;5.78;;;;;;;7.42;99.83;100965.97;4980938;28;20054;-76
2023/04/11 04:24:41;;;;;;;24.25;6.20;;;;;;;7.38;100.00;100972.31;4988265;28;20132;-76
2023/04/11 04:27:07;;;;;;;27.75;6.65;;;;;;;7.35;100.00;100969.88;4989889;28;20018;-76
2023/04/11 04:29:45;;;;;;;30.55;7.35;;;;;;;7.33;100.00;100979.59;5005505;28;20104;-76
2023/04/11 04:32:27;;;;;;;25.92;6.57;;;;;;;7.28;100.00;100986.88;4987711;28;20057;-76
2023/04/11 04:34:56;;;;;;;31.58;7.18;;;;;;;7.26;100.00;100991.38;4989611;28;20030;-76
2023/04/11 04:37:23;;;;;;;28.88;6.85;;;;;;;7.20;100.00;101002.16;4987401;28;20049;-76
2023/04/11 04:39:53;;;;;;;27.85;6.80;;;;;;;7.18;100.00;100993.56;4987318;28;20372;-75
2023/04/11 04:42:31;;;;;;;26.10;6.55;;;;;;;7.17;100.00;101004.94;4988560;28;20649;-76
2023/04/11 04:44:57;;;;;;;32.97;7.00;;;;;;;7.11;100.00;101005.31;4989829;28;20498;-76
2023/04/11 04:47:25;;;;;;;26.70;6.38;;;;;;;7.07;100.00;101014.25;4984908;28;20045;-76
2023/04/11 04:49:55;;;;;;;26.50;6.45;;;;;;;7.03;100.00;101012.75;4988645;28;20033;-76
2023/04/11 04:52:22;;;;;;;26.17;5.63;;;;;;;7.01;100.00;101018.06;4987129;28;20034;-76
2023/04/11 04:54:48;;;;;;;25.98;6.35;;;;;;;6.99;100.00;101025.16;4986844;28;20027;-76
2023/04/11 04:57:14;;;;;;;23.40;5.82;;;;;;;6.97;100.00;101015.72;4986359;28;20038;-76
2023/04/11 04:59:39;;;;;;;24.23;5.63;;;;;;;6.95;100.00;101022.81;4988795;28;20022;-75
2023/04/11 05:02:05;;;;;;;23.05;6.22;;;;;;;6.93;100.00;101027.28;4985858;28;20030;-77
2023/04/11 05:04:33;;;;;;;24.27;5.93;;;;;;;6.89;100.00;101032.69;4988401;28;20105;-76
2023/04/11 05:07:08;;;;;;;19.98;5.57;;;;;;;6.87;100.00;101039.78;4986752;28;20065;-76
2023/04/11 05:09:37;;;;;;;23.58;5.20;;;;;;;6.85;100.00;101041.63;4973242;28;20471;-76
2023/04/11 05:12:03;;;;;;;23.17;5.25;;;;;;;6.86;100.00;101037.25;4969733;28;20034;-77
2023/04/11 05:14:28;;;;;;;19.88;4.75;;;;;;;6.84;100.00;101031.25;4984525;28;20029;-76
2023/04/11 05:16:53;;;;;;;18.52;4.30;;;;;;;6.83;100.00;101038.25;4985566;28;20030;-75
2023/04/11 05:19:19;;;;;;;18.30;4.50;;;;;;;6.82;100.00;101044.44;4988038;28;20484;-77
2023/04/11 05:21:48;;;;;;;18.95;4.35;;;;;;;6.84;100.00;101045.19;4988531;28;20029;-77
2023/04/11 05:24:14;;;;;;;22.63;4.88;;;;;;;6.83;100.00;101047.88;4989523;28;20031;-77
2023/04/11 05:26:39;;;;;;;21.08;4.90;;;;;;;6.83;100.00;101042.66;4989897;28;20026;-77
2023/04/11 05:29:05;;;;;;;21.75;5.22;;;;;;;6.82;100.00;101052.28;4973742;28;20027;-77
2023/04/11 05:31:31;;;;;;;20.42;4.55;;;;;;;6.81;100.00;101058.44;4978392;28;20045;-77
2023/04/11 05:33:58;;;;;;;21.08;5.10;;;;;;;6.82;100.00;101057.50;5000230;28;20487;-77
2023/04/11 05:36:24;;;;;;;20.40;4.15;;;;;;;6.83;100.00;101059.19;4992362;28;20037;-77
2023/04/11 05:38:50;;;;;;;23.40;4.35;;;;;;;6.83;100.00;101064.41;4993508;28;20141;-77
2023/04/11 05:41:15;;;;;;;20.10;4.63;;;;;;;6.96;100.00;101072.41;4991297;28;20519;-77
2023/04/11 05:43:41;;;;;;;16.63;4.20;;;;;;;6.95;100.00;101073.34;4996311;28;20168;-77
2023/04/11 05:46:07;;;;;;;19.38;4.43;;;;;;;7.03;100.00;101070.31;5011779;28;20025;-76
2023/04/11 05:48:33;;;;;;;13.65;4.03;;;;;;;7.04;100.00;101077.22;5012298;28;20033;-77
2023/04/11 05:51:01;;;;;;;19.48;4.28;;;;;;;7.09;100.00;101075.19;4995946;28;20030;-77
2023/04/11 05:53:27;;;;;;;14.52;3.67;;;;;;;7.18;100.00;101085.97;4990798;28;20033;-77
2023/04/11 05:55:53;;;;;;;18.08;3.85;;;;;;;7.15;100.00;101080.91;5006025;28;20104;-77
2023/04/11 05:58:18;;;;;;;20.92;4.00;;;;;;;7.20;100.00;101093.75;4992297;28;20053;-77
2023/04/11 06:00:44;;;;;;;22.00;4.45;;;;;;;7.24;100.00;101090.06;4991950;28;20026;-77
2023/04/11 06:03:10;;;;;;;21.33;4.20;;;;;;;7.25;100.00;101099.59;4991036;28;20022;-76
2023/04/11 06:05:36;;;;;;;20.50;4.53;;;;;;;7.20;100.00;101105.09;4991491;28;20034;-77
2023/04/11 06:08:04;;;;;;;15.25;3.83;;;;;;;7.20;100.00;101102.47;5007376;28;20471;-76
2023/04/11 06:10:30;;;;;;;20.60;4.97;;;;;;;7.25;100.00;101098.75;4991880;28;20027;-76
2023/04/11 06:12:56;;;;;;;17.60;4.03;;;;;;;7.29;100.00;101102.88;4992795;28;20026;-76
2023/04/11 06:15:24;;;;;;;21.55;5.03;;;;;;;7.33;100.00;101100.00;4991973;28;20054;-76
2023/04/11 06:17:50;;;;;;;27.42;5.63;;;;;;;7.42;99.87;101109.94;4991159;28;20030;-76
2023/04/11 06:20:15;;;;;;;19.48;4.65;;;;;;;7.48;99.77;101109.59;4992626;28;20041;-76
2023/04/11 06:22:41;;;;;;;24.98;5.65;;;;;;;7.58;99.23;101115.13;5008081;28;20030;-76
2023/04/11 06:25:07;;;;;;;19.17;4.65;;;;;;;7.66;99.05;101119.97;4990833;28;20030;-76
2023/04/11 06:27:37;;;;;;;21.30;4.72;;;;;;;7.78;98.88;101121.88;4991558;28;20026;-76
2023/04/11 06:30:02;;;;;;;20.10;4.53;;;;;;;7.79;98.21;101120.94;4990925;28;20085;-76
2023/04/11 06:32:28;;;;;;;23.85;5.25;;;;;;;7.89;98.49;101116.84;4992239;28;20046;-76
2023/04/11 06:34:53;;;;;;;18.92;4.93;;;;;;;7.99;97.61;101117.13;4991790;28;20501;-77
2023/04/11 06:37:22;;;;;;;20.33;5.22;;;;;;;8.06;96.44;101129.81;4988730;28;20391;-76
2023/04/11 06:39:47;;;;;;;19.67;5.10;;;;;;;8.14;96.41;101129.34;4991228;28;20113;-77
2023/04/11 06:42:13;;;;;;;20.00;4.63;;;;;;;8.26;95.74;101127.78;4990880;28;20519;-78
2023/04/11 06:44:38;;;;;;;22.58;5.13;;;;;;;8.38;95.41;101137.53;4992220;28;20022;-77
2023/04/11 06:47:04;;;;;;;17.23;4.68;;;;;;;8.47;94.56;101137.00;4991574;28;20054;-74
2023/04/11 06:49:30;;;;;;;19.65;4.72;;;;;;;8.52;93.47;101134.13;4992005;28;20061;-77
2023/04/11 06:51:55;;;;;;;18.95;4.82;;;;;;;8.74;93.79;101145.81;4990202;28;20054;-75
2023/04/11 06:54:21;;;;;;;23.83;5.35;;;;;;;8.75;93.08;101144.88;4971606;28;20107;-76
2023/04/11 06:56:49;;;;;;;18.33;4.88;;;;;;;8.85;92.26;101147.78;4972390;28;20569;-77
2023/04/11 06:59:18;;;;;;;22.75;6.03;;;;;;;8.97;92.41;101141.78;4970895;28;20030;-78
2023/04/11 07:01:43;;;;;;;20.75;4.95;;;;;;;8.99;90.95;101146.91;4999961;28;20372;-77
2023/04/11 07:04:10;;;;;;;19.20;5.45;;;;;;;9.12;89.52;101155.69;4989563;28;20029;-77
2023/04/11 07:06:35;;;;;;;20.80;5.63;;;;;;;9.26;89.14;101153.06;4987398;28;20476;-77
2023/04/11 07:09:02;;;;;;;23.77;5.70;;;;;;;9.37;90.18;101153.22;4989273;28;20109;-76
2023/04/11 07:11:27;;;;;;;25.13;5.80;;;;;;;9.41;86.99;101159.13;4987340;28;20026;-76
2023/04/11 07:13:58;;;;;;;24.38;6.15;;;;;;;9.32;88.28;101168.44;4988881;28;20026;-76
2023/04/11 07:16:24;;;;;;;19.45;6.28;;;;;;;9.36;88.79;101153.31;5005527;28;20064;-78
2023/04/11 07:18:49;;;;;;;21.10;5.88;;;;;;;9.46;87.74;101158.81;4997755;28;20085;-77
2023/04/11 07:21:19;;;;;;;26.60;6.47;;;;;;;9.52;86.40;101156.63;4989155;28;20278;-77
2023/04/11 07:23:48;;;;;;;19.48;5.70;;;;;;;9.72;87.02;101165.88;4990236;28;20022;-77
2023/04/11 07:26:15;;;;;;;20.73;6.20;;;;;;;9.91;86.42;101168.97;4990593;28;20084;-78
2023/04/11 07:28:43;;;;;;;23.67;6.65;;;;;;;10.10;84.44;101175.66;4976371;28;20022;-77
2023/04/11 07:31:09;;;;;;;26.77;6.53;;;;;;;10.10;84.22;101167.75;4999769;28;20038;-77
2023/04/11 07:33:38;;;;;;;17.10;5.30;;;;;;;10.13;82.91;101181.53;4990007;28;20015;-78
2023/04/11 07:36:05;;;;;;;14.98;4.82;;;;;;;10.08;83.10;101185.41;4990154;28;20488;-73
2023/04/11 07:38:32;;;;;;;18.15;4.85;;;;;;;9.94;79.92;101192.41;4988827;28;20026;-74
2023/04/11 07:41:01;;;;;;;15.23;4.18;;;;;;;10.16;81.67;101191.00;4982011;28;20061;-74
2023/04/11 07:43:33;;;;;;;16.80;4.60;;;;;;;10.24;80.20;101191.38;4989446;28;20026;-74
2023/04/11 07:46:01;;;;;;;17.95;4.90;;;;;;;10.42;79.92;101198.03;4986610;28;20038;-74
2023/04/11 07:48:29;;;;;;;16.33;4.25;;;;;;;10.56;78.62;101195.28;4985570;28;20022;-76
2023/04/11 07:50:55;;;;;;;16.45;4.72;;;;;;;10.43;78.25;101189.19;5011730;28;20076;-74
2023/04/11 07:53:20;;;;;;;17.67;4.60;;;;;;;10.52;78.20;101193.81;4995671;28;20108;-75
2023/04/11 07:55:48;;;;;;;12.77;3.72;;;;;;;10.70;77.46;101185.59;4988595;28;20022;-75
2023/04/11 07:58:13;;;;;;;15.35;4.28;;;;;;;10.86;76.75;101186.25;4988789;28;20030;-74
2023/04/11 08:00:38;;;;;;;15.43;3.88;;;;;;;10.95;76.65;101196.13;4990131;28;20125;-76
2023/04/11 08:03:05;;;;;;;18.92;4.13;;;;;;;11.14;74.23;101193.88;5002079;28;20029;-76
2023/04/11 08:05:33;;;;;;;14.18;3.50;;;;;;;11.30;74.24;101201.53;4997499;28;20022;-76
2023/04/11 08:07:58;;;;;;;11.45;3.42;;;;;;;11.39;71.65;101200.03;5000054;28;20034;-76
2023/04/11 08:10:24;;;;;;;16.70;3.97;;;;;;;11.33;72.15;101200.47;5002925;28;20386;-76
2023/04/11 08:12:50;;;;;;;11.13;3.03;;;;;;;11.22;71.52;101191.56;4986717;28;20036;-76
2023/04/11 08:15:16;;;;;;;15.32;3.67;;;;;;;11.22;71.60;101202.09;4988739;28;20026;-76
2023/04/11 08:17:42;;;;;;;13.93;3.25;;;;;;;11.43;72.17;101206.75;4988092;28;20080;-76
2023/04/11 08:20:08;;;;;;;15.48;3.60;;;;;;;11.40;70.46;101217.53;4987787;28;20034;-76
2023/04/11 08:22:34;;;;;;;16.00;3.67;;;;;;;11.44;70.96;101222.47;4976069;28;20039;-76
2023/04/11 08:25:08;;;;;;;14.50;2.97;;;;;;;11.39;70.55;101226.38;4981117;28;20755;-76
2023/04/11 08:27:34;;;;;;;12.52;3.10;;;;;;;11.64;69.79;101226.31;4990117;28;20038;-76
2023/04/11 08:30:00;;;;;;;16.92;3.70;;;;;;;11.77;69.31;101236.81;4989893;28;20084;-76
2023/04/11 08:32:26;;;;;;;15.57;3.28;;;;;;;11.89;67.71;101220.13;4989282;28;20030;-76
2023/04/11 08:34:51;;;;;;;14.90;3.25;;;;;;;11.85;64.74;101237.94;4988275;28;20028;-76
2023/04/11 08:37:17;;;;;;;12.35;3.17;;;;;;;11.68;65.74;101238.31;4997134;28;20046;-77
2023/04/11 08:39:43;;;;;;;14.40;3.50;;;;;;;11.76;66.55;101235.97;4989584;28;20034;-78
2023/04/11 08:42:25;;;;;;;15.50;3.58;;;;;;;11.85;68.72;101240.59;4989306;28;20151;-77
2023/04/11 08:45:04;;;;;;;12.48;3.10;;;;;;;11.87;68.82;101249.22;4989320;28;20098;-78
2023/04/11 08:47:30;;;;;;;13.32;2.85;;;;;;;11.96;67.42;101250.34;4989080;28;20026;-78
2023/04/11 08:49:55;;;;;;;15.82;3.53;;;;;;;11.97;65.41;101259.09;4990944;28;20032;-79
2023/04/11 08:52:22;;;;;;;10.68;2.92;;;;;;;11.80;66.81;101257.69;4987433;28;20073;-78
2023/04/11 08:54:50;;;;;;;11.75;3.08;;;;;;;11.63;68.18;101243.09;4989805;28;20025;-78
2023/04/11 08:57:30;;;;;;;11.70;2.88;;;;;;;11.68;66.46;101248.03;4989243;28;20053;-78
2023/04/11 09:00:15;;;;;;;14.27;3.05;;;;;;;11.46;66.39;101243.44;4990139;28;20019;-78
2023/04/11 09:03:04;;;;;;;12.48;2.85;;;;;;;11.44;67.18;101240.06;4994121;28;20099;-78
2023/04/11 09:05:37;;;;;;;10.50;3.00;;;;;;;11.38;68.32;101248.41;4994265;28;20032;-78
2023/04/11 09:08:05;;;;;;;10.85;2.58;;;;;;;11.73;66.93;101245.88;4992984;28;20439;-78
2023/04/11 09:10:37;;;;;;;12.43;2.97;;;;;;;12.18;65.09;101242.56;4994450;28;20046;-78
2023/04/11 09:13:26;;;;;;;11.57;3.00;;;;;;;12.49;65.74;101256.94;4993111;28;20026;-77
2023/04/11 09:16:13;;;;;;;14.57;3.05;;;;;;;12.45;65.93;101255.50;4994354;28;20022;-76
2023/04/11 09:18:40;;;;;;;10.70;2.47;;;;;;;12.50;62.79;101252.50;4992760;28;20038;-78
2023/04/11 09:21:11;;;;;;;14.95;2.85;;;;;;;12.75;62.77;101251.47;4993113;28;20026;-78
2023/04/11 09:23:37;;;;;;;11.88;2.95;;;;;;;12.94;59.85;101254.38;4993849;28;20041;-77
2023/04/11 09:26:10;;;;;;;9.60;2.55;;;;;;;13.33;60.89;101250.47;4993108;28;20018;-78
2023/04/11 09:28:44;;;;;;;11.05;2.45;;;;;;;13.70;59.04;101251.00;4993372;28;20022;-76
2023/04/11 09:31:13;;;;;;;11.50;2.85;;;;;;;13.91;58.37;101250.22;4993406;28;20458;-78
2023/04/11 09:33:38;;;;;;;8.52;2.40;;;;;;;13.77;59.06;101261.94;4993388;28;20426;-77
2023/04/11 09:36:18;;;;;;;11.23;2.50;;;;;;;13.49;59.75;101265.94;4992516;28;20042;-78
2023/04/11 09:38:44;;;;;;;11.85;2.83;;;;;;;13.15;56.73;101263.25;4993105;28;20018;-78
2023/04/11 09:41:10;;;;;;;11.48;2.60;;;;;;;13.42;57.38;101260.28;4990338;28;20280;-78
2023/04/11 09:43:49;;;;;;;11.32;2.42;;;;;;;13.86;58.22;101255.88;4975354;28;20031;-76
2023/04/11 09:46:17;;;;;;;11.35;2.47;;;;;;;14.23;52.56;101256.38;4973518;28;20088;-76
2023/04/11 09:48:43;;;;;;;10.15;2.35;;;;;;;14.47;53.20;101257.97;4971540;28;20576;-76
2023/04/11 09:51:09;;;;;;;9.00;2.28;;;;;;;15.09;52.92;101257.06;4987688;28;20173;-76
2023/04/11 09:53:36;;;;;;;9.02;2.20;;;;;;;15.32;52.44;101269.19;4973271;28;20022;-75
2023/04/11 09:56:05;;;;;;;8.27;2.35;;;;;;;15.17;50.46;101258.09;4971049;28;20419;-78
2023/04/11 09:58:32;;;;;;;7.80;2.08;;;;;;;15.10;48.46;101259.59;4987550;28;20037;-76
2023/04/11 10:01:06;;;;;;;7.28;2.20;;;;;;;14.94;48.58;101260.09;4977144;28;20162;-78
2023/04/11 10:03:35;;;;;;;8.23;2.30;;;;;;;15.99;47.54;101260.56;4972805;28;20027;-78
2023/04/11 10:06:15;;;;;;;8.85;2.00;;;;;;;17.75;46.25;101252.91;4972813;28;20395;-79
2023/04/11 10:08:46;;;;;;;8.45;2.05;;;;;;;18.94;39.94;101254.28;5004212;28;20443;-79
2023/04/11 10:11:13;;;;;;;6.68;2.00;;;;;;;20.34;36.61;101250.88;4992209;28;20105;-78
2023/04/11 10:13:45;;;;;;;8.07;1.95;;;;;;;21.38;34.37;101247.38;4993528;28;20046;-78
2023/04/11 10:16:12;;;;;;;7.70;2.20;;;;;;;21.55;32.93;101232.91;4990624;28;20364;-78
2023/04/11 10:18:56;;;;;;;12.50;2.13;;;;;;;22.16;34.30;101227.69;4993057;28;20096;-77
2023/04/11 10:21:33;;;;;;;5.50;1.60;;;;;;;22.97;31.92;101231.47;4992649;28;20068;-77
2023/04/11 10:24:12;;;;;;;6.45;1.88;;;;;;;23.42;32.52;101225.03;4992479;28;20073;-76
2023/04/11 10:26:56;;;;;;;7.07;2.13;;;;;;;24.66;32.72;101223.81;4992417;28;20030;-78
2023/04/11 10:29:39;;;;;;;5.13;1.63;;;;;;;23.95;29.00;101231.03;4992798;28;20031;-76
2023/04/11 10:32:14;;;;;;;7.13;1.60;;;;;;;24.45;28.89;101223.88;4998248;28;20039;-76
2023/04/11 10:35:03;;;;;;;7.20;1.88;;;;;;;24.57;30.39;101219.63;4982356;28;20018;-78
2023/04/11 10:37:35;;;;;;;9.10;1.70;;;;;;;22.99;28.75;101230.28;4981224;28;20435;-77
2023/04/11 10:40:03;;;;;;;7.00;1.77;;;;;;;22.38;29.36;101229.50;4986952;28;20482;-77
2023/04/11 10:42:33;;;;;;;8.02;1.98;;;;;;;21.03;30.41;101231.75;4992932;28;20050;-78
2023/04/11 10:45:25;;;;;;;9.70;2.00;;;;;;;20.30;35.17;101230.00;4990721;28;20030;-77
2023/04/11 10:47:51;;;;;;;7.53;1.65;;;;;;;19.36;33.21;101231.13;5003612;28;20092;-76
2023/04/11 10:50:26;;;;;;;7.07;1.90;;;;;;;18.66;36.44;101229.59;5005437;28;20372;-77
2023/04/11 10:53:13;;;;;;;5.25;1.60;;;;;;;18.17;36.58;101240.69;4990807;28;20076;-77
2023/04/11 10:55:49;;;;;;;8.65;2.10;;;;;;;17.91;38.51;101247.75;4988629;28;20422;-78
2023/04/11 10:58:18;;;;;;;6.78;1.83;;;;;;;17.48;38.07;101249.25;4987326;28;20026;-77
2023/04/11 11:00:50;;;;;;;7.20;1.77;;;;;;;17.17;38.70;101239.88;4987698;28;20045;-76
2023/04/11 11:03:21;;;;;;;10.30;2.20;;;;;;;16.76;38.41;101249.94;4991915;28;20022;-77
2023/04/11 11:06:00;;;;;;;5.25;1.90;;;;;;;16.11;38.94;101248.88;4978442;28;20533;-77
2023/04/11 11:08:42;;;;;;;6.75;2.15;;;;;;;16.14;39.63;101237.97;4986341;28;20049;-77
2023/04/11 11:11:09;;;;;;;7.97;1.90;;;;;;;16.06;38.70;101237.84;4991068;28;20026;-77
2023/04/11 11:13:45;;;;;;;8.07;2.13;;;;;;;16.10;40.89;101244.53;4990917;28;20034;-78
2023/04/11 11:16:15;;;;;;;8.35;2.22;;;;;;;15.82;40.07;101251.50;4989547;28;20467;-78
2023/04/11 11:18:45;;;;;;;8.13;1.60;;;;;;;15.85;39.94;101258.34;4990179;28;20080;-79
2023/04/11 11:21:13;;;;;;;7.70;1.90;;;;;;;15.96;42.28;101248.41;4987619;28;20054;-77
2023/04/11 11:24:00;;;;;;;5.72;1.60;;;;;;;16.06;38.91;101267.03;4988235;28;20041;-78